createdAt,value
2018-08-23T00:00:46.779Z,9.07
2018-08-23T00:03:20.716Z,8.80
2018-08-23T00:05:56.480Z,9.40
2018-08-23T00:08:25.776Z,9.10
2018-08-23T00:10:55.234Z,8.90
2018-08-23T00:13:24.327Z,8.53
2018-08-23T00:15:53.243Z,8.57
2018-08-23T00:18:22.189Z,9.17
2018-08-23T00:20:51.142Z,9.13
2018-08-23T00:23:20.077Z,8.57
2018-08-23T00:25:48.932Z,8.23
2018-08-23T00:28:17.933Z,8.47
2018-08-23T00:30:47.243Z,9.27
2018-08-23T00:33:16.149Z,9.03
2018-08-23T00:35:44.974Z,8.50
2018-08-23T00:38:13.915Z,8.90
2018-08-23T00:40:44.128Z,8.60
2018-08-23T00:43:14.770Z,9.03
2018-08-23T00:45:44.206Z,8.50
2018-08-23T00:48:13.079Z,9.07
2018-08-23T00:50:49.780Z,8.53
2018-08-23T00:53:18.978Z,8.50
2018-08-23T00:55:47.889Z,8.97
2018-08-23T00:58:16.882Z,9.20
2018-08-23T01:00:54.984Z,8.87
2018-08-23T01:03:23.928Z,8.70
2018-08-23T01:05:53.027Z,8.23
2018-08-23T01:08:27.036Z,8.90
2018-08-23T01:10:55.954Z,8.70
2018-08-23T01:13:24.817Z,9.33
2018-08-23T01:15:54.271Z,8.50
2018-08-23T01:18:23.076Z,9.00
2018-08-23T01:20:52.832Z,8.63
2018-08-23T01:23:21.916Z,8.47
2018-08-23T01:25:51.353Z,8.50
2018-08-23T01:28:20.250Z,8.80
2018-08-23T01:30:49.785Z,7.70
2018-08-23T01:33:22.745Z,8.40
2018-08-23T01:35:52.444Z,8.30
2018-08-23T01:38:21.375Z,8.57
2018-08-23T01:40:54.030Z,8.40
2018-08-23T01:43:24.367Z,8.90
2018-08-23T01:45:53.207Z,9.23
2018-08-23T01:48:22.282Z,9.40
2018-08-23T01:50:51.248Z,8.87
2018-08-23T01:53:20.659Z,9.17
2018-08-23T01:55:49.584Z,9.03
2018-08-23T01:58:18.420Z,9.60
2018-08-23T02:00:51.479Z,9.03
2018-08-23T02:03:20.308Z,9.00
2018-08-23T02:05:49.333Z,10.03
2018-08-23T02:08:18.193Z,9.27
2018-08-23T02:10:47.108Z,9.27
2018-08-23T02:13:26.739Z,8.80
2018-08-23T02:15:55.604Z,9.60
2018-08-23T02:18:24.655Z,8.97
2018-08-23T02:20:57.627Z,9.60
2018-08-23T02:23:26.504Z,9.83
2018-08-23T02:25:55.460Z,9.43
2018-08-23T02:28:24.287Z,10.07
2018-08-23T02:30:55.224Z,9.03
2018-08-23T02:33:24.372Z,10.10
2018-08-23T02:36:05.388Z,10.53
2018-08-23T02:38:34.994Z,9.17
2018-08-23T02:41:03.923Z,9.60
2018-08-23T02:43:32.760Z,8.97
2018-08-23T02:46:03.538Z,9.27
2018-08-23T02:48:32.452Z,9.57
2018-08-23T02:51:01.316Z,9.33
2018-08-23T02:53:35.221Z,9.70
2018-08-23T02:56:06.081Z,9.73
2018-08-23T02:58:40.345Z,9.90
2018-08-23T03:01:09.328Z,9.67
2018-08-23T03:03:38.534Z,8.83
2018-08-23T03:06:07.510Z,10.23
2018-08-23T03:08:43.459Z,11.07
2018-08-23T03:11:12.409Z,10.70
2018-08-23T03:13:43.971Z,10.03
2018-08-23T03:16:13.348Z,10.03
2018-08-23T03:18:42.266Z,11.07
2018-08-23T03:21:11.161Z,10.60
2018-08-23T03:23:40.082Z,10.03
2018-08-23T03:26:09.025Z,10.23
2018-08-23T03:28:38.065Z,10.50
2018-08-23T03:31:06.872Z,12.93
2018-08-23T03:33:35.945Z,10.07
2018-08-23T03:36:04.771Z,11.73
2018-08-23T03:38:33.721Z,10.90
2018-08-23T03:41:02.681Z,10.37
2018-08-23T03:43:31.531Z,10.57
2018-08-23T03:46:01.000Z,9.93
2018-08-23T03:48:29.828Z,11.17
2018-08-23T03:50:58.720Z,10.87
2018-08-23T03:53:41.503Z,11.03
2018-08-23T03:56:10.825Z,10.60
2018-08-23T03:58:39.692Z,10.90
2018-08-23T04:01:12.948Z,11.17
2018-08-23T04:03:41.889Z,10.10
2018-08-23T04:06:24.044Z,12.77
2018-08-23T04:08:52.896Z,11.47
2018-08-23T04:11:21.791Z,11.90
2018-08-23T04:13:50.691Z,11.17
2018-08-23T04:16:25.444Z,10.27
2018-08-23T04:18:54.561Z,10.73
2018-08-23T04:21:23.382Z,10.77
2018-08-23T04:23:52.280Z,10.43
2018-08-23T04:26:21.686Z,10.67
2018-08-23T04:28:50.659Z,10.97
2018-08-23T04:31:19.625Z,10.53
2018-08-23T04:33:48.576Z,12.87
2018-08-23T04:36:28.592Z,12.27
2018-08-23T04:39:00.337Z,11.23
2018-08-23T04:41:30.436Z,11.93
2018-08-23T04:44:15.944Z,12.47
2018-08-23T04:46:45.017Z,10.07
2018-08-23T04:49:13.985Z,10.47
2018-08-23T04:51:42.849Z,12.00
2018-08-23T04:54:11.801Z,10.27
2018-08-23T04:56:40.770Z,11.57
2018-08-23T04:59:09.716Z,11.43
2018-08-23T05:01:38.653Z,11.27
2018-08-23T05:04:07.680Z,11.50
2018-08-23T05:06:36.507Z,11.43
2018-08-23T05:09:07.465Z,12.17
2018-08-23T05:11:36.924Z,11.87
2018-08-23T05:14:06.091Z,11.87
2018-08-23T05:16:35.012Z,11.10
2018-08-23T05:19:04.025Z,10.73
2018-08-23T05:21:32.843Z,11.33
2018-08-23T05:24:09.097Z,11.23
2018-08-23T05:26:38.071Z,10.47
2018-08-23T05:29:08.199Z,11.47
2018-08-23T05:31:37.368Z,11.30
2018-08-23T05:34:07.437Z,11.87
2018-08-23T05:36:36.293Z,11.70
2018-08-23T05:39:07.929Z,10.43
2018-08-23T05:41:37.769Z,11.13
2018-08-23T05:44:12.724Z,11.40
2018-08-23T05:46:46.834Z,22.50
2018-08-23T05:49:15.940Z,13.07
2018-08-23T05:51:45.303Z,10.90
2018-08-23T05:54:14.257Z,10.77
2018-08-23T05:56:43.183Z,9.83
2018-08-23T05:59:19.305Z,8.50
2018-08-23T06:01:48.655Z,6.30
2018-08-23T06:04:18.690Z,5.80
2018-08-23T06:06:47.615Z,5.93
2018-08-23T06:09:17.063Z,5.53
2018-08-23T06:11:46.049Z,5.73
2018-08-23T06:14:14.926Z,5.53
2018-08-23T06:16:49.009Z,5.17
2018-08-23T06:19:18.051Z,5.53
2018-08-23T06:21:46.969Z,5.63
2018-08-23T06:24:15.863Z,6.13
2018-08-23T06:26:50.406Z,7.07
2018-08-23T06:29:25.106Z,5.73
2018-08-23T06:31:59.820Z,5.33
2018-08-23T06:34:32.310Z,5.77
2018-08-23T06:37:01.281Z,5.47
2018-08-23T06:39:30.220Z,4.67
2018-08-23T06:42:00.481Z,5.33
2018-08-23T06:44:37.273Z,5.27
2018-08-23T06:47:06.213Z,4.43
2018-08-23T06:49:35.097Z,4.93
2018-08-23T06:52:10.367Z,4.93
2018-08-23T06:54:39.540Z,4.70
2018-08-23T06:57:08.608Z,4.53
2018-08-23T06:59:38.032Z,4.60
2018-08-23T07:02:07.053Z,4.63
2018-08-23T07:04:35.976Z,4.80
2018-08-23T07:07:05.088Z,4.37
2018-08-23T07:09:38.480Z,4.57
2018-08-23T07:12:12.456Z,4.40
2018-08-23T07:14:41.404Z,4.40
2018-08-23T07:17:17.356Z,4.37
2018-08-23T07:19:47.124Z,4.33
2018-08-23T07:22:21.206Z,4.80
2018-08-23T07:24:50.831Z,4.37
2018-08-23T07:27:20.729Z,4.77
2018-08-23T07:29:55.313Z,6.93
2018-08-23T07:32:26.116Z,4.37
2018-08-23T07:35:01.784Z,5.40
2018-08-23T07:37:31.932Z,4.80
2018-08-23T07:40:05.931Z,4.37
2018-08-23T07:42:35.648Z,5.00
2018-08-23T07:45:04.583Z,4.20
2018-08-23T07:47:34.481Z,5.40
2018-08-23T07:50:03.510Z,6.53
2018-08-23T07:52:33.243Z,4.77
2018-08-23T07:55:04.773Z,4.80
2018-08-23T07:57:34.837Z,4.33
2018-08-23T08:00:12.409Z,4.17
2018-08-23T08:02:41.316Z,4.30
2018-08-23T08:05:10.582Z,3.83
2018-08-23T08:07:39.516Z,4.03
2018-08-23T08:10:12.553Z,3.90
2018-08-23T08:12:46.612Z,4.10
2018-08-23T08:15:15.555Z,3.80
2018-08-23T08:17:44.415Z,3.70
2018-08-23T08:20:13.276Z,3.50
2018-08-23T08:22:42.249Z,3.80
2018-08-23T08:25:21.080Z,3.40
2018-08-23T08:27:50.964Z,4.40
2018-08-23T08:30:29.520Z,3.60
2018-08-23T08:32:58.400Z,3.80
2018-08-23T08:35:27.264Z,4.00
2018-08-23T08:37:56.278Z,3.93
2018-08-23T08:40:26.393Z,4.00
2018-08-23T08:42:55.360Z,4.10
2018-08-23T08:45:27.053Z,4.03
2018-08-23T08:48:05.499Z,3.87
2018-08-23T08:50:38.797Z,3.97
2018-08-23T08:53:07.790Z,4.77
2018-08-23T08:55:36.730Z,4.40
2018-08-23T08:58:07.201Z,3.90
2018-08-23T09:00:53.817Z,3.60
2018-08-23T09:03:23.273Z,5.00
2018-08-23T09:05:52.115Z,4.10
2018-08-23T09:08:20.953Z,3.90
2018-08-23T09:10:49.808Z,4.10
2018-08-23T09:13:19.280Z,3.97
2018-08-23T09:15:50.112Z,4.53
2018-08-23T09:18:23.734Z,4.00
2018-08-23T09:20:56.524Z,3.80
2018-08-23T09:23:25.760Z,4.07
2018-08-23T09:25:58.147Z,3.90
2018-08-23T09:28:28.170Z,4.83
2018-08-23T09:30:57.165Z,3.40
2018-08-23T09:33:27.654Z,3.53
2018-08-23T09:35:56.728Z,3.73
2018-08-23T09:38:25.607Z,3.40
2018-08-23T09:40:54.634Z,2.97
2018-08-23T09:43:23.600Z,3.37
2018-08-23T09:45:53.876Z,3.20
2018-08-23T09:48:22.980Z,3.20
2018-08-23T09:50:51.935Z,2.80
2018-08-23T09:53:25.690Z,3.20
2018-08-23T09:55:55.994Z,3.47
2018-08-23T09:58:30.221Z,3.37
2018-08-23T10:01:04.345Z,3.63
2018-08-23T10:03:38.392Z,3.10
2018-08-23T10:06:30.285Z,2.67
2018-08-23T10:09:14.840Z,3.20
2018-08-23T10:11:49.592Z,2.90
2018-08-23T10:14:22.584Z,3.77
2018-08-23T10:16:56.504Z,3.23
2018-08-23T10:19:30.444Z,3.07
2018-08-23T10:22:04.472Z,3.20
2018-08-23T10:24:34.517Z,3.10
2018-08-23T10:27:03.556Z,2.87
2018-08-23T10:29:32.486Z,3.10
2018-08-23T10:32:01.485Z,3.13
2018-08-23T10:34:30.532Z,3.03
2018-08-23T10:36:59.376Z,3.10
2018-08-23T10:39:28.193Z,2.97
2018-08-23T10:41:57.093Z,3.10
2018-08-23T10:44:26.073Z,2.60
2018-08-23T10:46:55.954Z,3.03
2018-08-23T10:49:25.136Z,3.67
2018-08-23T10:51:54.142Z,3.20
2018-08-23T10:54:23.120Z,3.33
2018-08-23T10:56:51.941Z,3.07
2018-08-23T10:59:20.829Z,3.00
2018-08-23T11:01:49.676Z,3.50
2018-08-23T11:04:19.294Z,2.90
2018-08-23T11:06:53.165Z,3.07
2018-08-23T11:09:27.032Z,2.90
2018-08-23T11:11:56.183Z,2.60
2018-08-23T11:14:30.359Z,3.13
2018-08-23T11:17:04.612Z,2.97
2018-08-23T11:19:38.661Z,3.23
2018-08-23T11:22:07.789Z,3.80
2018-08-23T11:24:36.781Z,3.37
2018-08-23T11:27:09.117Z,3.10
2018-08-23T11:29:38.075Z,3.63
2018-08-23T11:32:06.911Z,3.30
2018-08-23T11:34:35.833Z,3.40
2018-08-23T11:37:04.663Z,3.43
2018-08-23T11:39:33.622Z,3.17
2018-08-23T11:42:02.543Z,3.17
2018-08-23T11:44:31.427Z,3.20
2018-08-23T11:47:00.349Z,4.17
2018-08-23T11:49:29.211Z,3.30
2018-08-23T11:51:58.063Z,3.07
2018-08-23T11:54:26.902Z,3.30
2018-08-23T11:56:55.989Z,3.80
2018-08-23T11:59:24.920Z,2.80
2018-08-23T12:01:53.888Z,3.40
2018-08-23T12:04:22.854Z,3.20
2018-08-23T12:06:56.120Z,3.27
2018-08-23T12:09:30.184Z,3.13
2018-08-23T12:11:59.095Z,2.83
2018-08-23T12:14:28.000Z,3.20
2018-08-23T12:16:56.978Z,3.43
2018-08-23T12:19:25.916Z,2.93
2018-08-23T12:21:54.797Z,3.40
2018-08-23T12:24:23.661Z,2.93
2018-08-23T12:26:52.787Z,3.63
2018-08-23T12:29:21.675Z,3.20
2018-08-23T12:31:50.808Z,3.10
2018-08-23T12:34:30.528Z,3.30
2018-08-23T12:37:04.566Z,2.87
2018-08-23T12:39:38.512Z,2.87
2018-08-23T12:42:12.499Z,3.37
2018-08-23T12:44:46.723Z,3.53
2018-08-23T12:47:15.999Z,3.80
2018-08-23T12:49:47.734Z,3.00
2018-08-23T12:52:16.879Z,3.00
2018-08-23T12:54:45.716Z,3.50
2018-08-23T12:57:14.724Z,3.20
2018-08-23T12:59:43.761Z,3.50
2018-08-23T13:02:12.801Z,3.90
2018-08-23T13:04:41.772Z,3.20
2018-08-23T13:07:10.640Z,3.80
2018-08-23T13:09:39.552Z,3.30
2018-08-23T13:12:08.448Z,3.60
2018-08-23T13:14:37.310Z,3.40
2018-08-23T13:17:06.219Z,4.03
2018-08-23T13:19:35.024Z,3.27
2018-08-23T13:22:04.198Z,3.37
2018-08-23T13:24:33.861Z,4.20
2018-08-23T13:27:02.876Z,3.67
2018-08-23T13:29:31.759Z,3.13
2018-08-23T13:32:00.722Z,3.33
2018-08-23T13:34:29.844Z,3.17
2018-08-23T13:36:59.236Z,3.27
2018-08-23T13:39:28.269Z,3.87
2018-08-23T13:41:57.265Z,3.50
2018-08-23T13:44:26.123Z,3.57
2018-08-23T13:46:54.940Z,3.53
2018-08-23T13:49:23.798Z,3.27
2018-08-23T13:51:52.717Z,3.60
2018-08-23T13:54:21.694Z,3.73
2018-08-23T13:56:50.673Z,3.23
2018-08-23T13:59:19.721Z,3.57
2018-08-23T14:01:49.033Z,3.40
2018-08-23T14:04:17.902Z,3.20
2018-08-23T14:06:47.268Z,3.10
2018-08-23T14:09:16.111Z,3.50
2018-08-23T14:11:45.008Z,3.30
2018-08-23T14:14:14.050Z,3.50
2018-08-23T14:16:43.094Z,3.10
2018-08-23T14:19:11.997Z,3.70
2018-08-23T14:21:40.972Z,3.37
2018-08-23T14:24:10.057Z,3.13
2018-08-23T14:26:39.042Z,3.70
2018-08-23T14:29:07.860Z,2.90
2018-08-23T14:31:36.907Z,3.67
2018-08-23T14:34:05.820Z,2.83
2018-08-23T14:36:34.737Z,3.33
2018-08-23T14:39:04.176Z,2.97
2018-08-23T14:41:33.011Z,3.40
2018-08-23T14:44:01.967Z,3.43
2018-08-23T14:46:35.936Z,3.17
2018-08-23T14:49:04.829Z,3.47
2018-08-23T14:51:33.964Z,3.17
2018-08-23T14:54:06.557Z,3.50
2018-08-23T14:56:40.862Z,3.13
2018-08-23T14:59:09.843Z,3.63
2018-08-23T15:01:38.725Z,3.70
2018-08-23T15:04:07.721Z,3.03
2018-08-23T15:06:36.658Z,2.90
2018-08-23T15:09:07.807Z,3.30
2018-08-23T15:11:36.731Z,2.90
2018-08-23T15:14:05.601Z,3.03
2018-08-23T15:16:34.600Z,2.93
2018-08-23T15:19:03.503Z,3.33
2018-08-23T15:21:32.545Z,3.00
2018-08-23T15:24:01.388Z,2.80
2018-08-23T15:26:30.536Z,2.80
2018-08-23T15:28:59.223Z,3.03
2018-08-23T15:31:28.186Z,2.97
2018-08-23T15:33:57.110Z,3.13
2018-08-23T15:36:26.166Z,3.23
2018-08-23T15:38:55.153Z,2.83
2018-08-23T15:41:23.976Z,3.40
2018-08-23T15:43:52.793Z,3.50
2018-08-23T15:46:21.775Z,3.30
2018-08-23T15:48:50.796Z,3.73
2018-08-23T15:51:19.873Z,3.70
2018-08-23T15:53:48.721Z,3.30
2018-08-23T15:56:17.761Z,3.33
2018-08-23T15:58:46.831Z,3.83
2018-08-23T16:01:15.792Z,11.67
2018-08-23T16:03:44.740Z,4.10
2018-08-23T16:06:13.633Z,5.00
2018-08-23T16:08:47.661Z,3.67
2018-08-23T16:11:16.748Z,4.13
2018-08-23T16:13:45.709Z,3.13
2018-08-23T16:16:19.900Z,3.70
2018-08-23T16:18:53.692Z,4.00
2018-08-23T16:21:27.615Z,4.00
2018-08-23T16:23:56.904Z,3.57
2018-08-23T16:26:29.881Z,3.70
2018-08-23T16:28:59.028Z,3.63
2018-08-23T16:31:28.012Z,4.00
2018-08-23T16:33:56.907Z,3.37
2018-08-23T16:36:25.960Z,3.70
2018-08-23T16:38:54.969Z,4.43
2018-08-23T16:41:24.116Z,3.57
2018-08-23T16:43:53.016Z,3.97
2018-08-23T16:46:22.024Z,3.47
2018-08-23T16:48:50.965Z,3.83
2018-08-23T16:51:19.947Z,3.60
2018-08-23T16:53:48.833Z,4.27
2018-08-23T16:56:17.829Z,3.60
2018-08-23T16:58:46.652Z,4.40
2018-08-23T17:01:15.570Z,4.50
2018-08-23T17:03:48.725Z,4.63
2018-08-23T17:06:17.683Z,4.33
2018-08-23T17:08:46.616Z,3.97
2018-08-23T17:11:15.687Z,4.30
2018-08-23T17:13:44.516Z,4.97
2018-08-23T17:16:18.720Z,4.27
2018-08-23T17:18:47.533Z,4.40
2018-08-23T17:21:16.341Z,4.43
2018-08-23T17:23:45.320Z,4.27
2018-08-23T17:26:14.296Z,3.93
2018-08-23T17:28:43.321Z,4.03
2018-08-23T17:31:12.343Z,4.00
2018-08-23T17:33:41.209Z,4.37
2018-08-23T17:36:10.125Z,4.33
2018-08-23T17:38:39.054Z,5.40
2018-08-23T17:41:08.009Z,4.50
2018-08-23T17:43:36.883Z,4.10
2018-08-23T17:46:05.856Z,4.13
2018-08-23T17:48:34.938Z,4.10
2018-08-23T17:51:03.819Z,4.30
2018-08-23T17:53:32.797Z,3.83
2018-08-23T17:56:01.668Z,4.17
2018-08-23T17:58:30.728Z,4.03
2018-08-23T18:00:59.576Z,4.03
2018-08-23T18:03:28.498Z,4.13
2018-08-23T18:05:57.522Z,3.90
2018-08-23T18:08:26.494Z,5.20
2018-08-23T18:10:55.360Z,4.17
2018-08-23T18:13:24.298Z,4.27
2018-08-23T18:15:58.181Z,4.30
2018-08-23T18:18:27.212Z,4.67
2018-08-23T18:20:56.072Z,4.27
2018-08-23T18:23:25.019Z,4.50
2018-08-23T18:25:53.861Z,4.37
2018-08-23T18:28:22.976Z,4.57
2018-08-23T18:30:51.876Z,4.53
2018-08-23T18:33:20.854Z,3.97
2018-08-23T18:35:49.928Z,4.50
2018-08-23T18:38:18.945Z,5.97
2018-08-23T18:40:47.792Z,7.37
2018-08-23T18:43:16.828Z,4.27
2018-08-23T18:45:45.712Z,4.80
2018-08-23T18:48:14.511Z,4.07
2018-08-23T18:50:43.559Z,4.37
2018-08-23T18:53:12.426Z,4.30
2018-08-23T18:55:41.364Z,3.90
2018-08-23T18:58:10.236Z,3.90
2018-08-23T19:00:39.221Z,3.97
2018-08-23T19:03:08.249Z,6.27
2018-08-23T19:05:37.222Z,4.23
2018-08-23T19:08:06.764Z,5.30
2018-08-23T19:10:35.677Z,4.60
2018-08-23T19:13:04.558Z,5.37
2018-08-23T19:15:38.563Z,4.77
2018-08-23T19:18:06.945Z,5.80
2018-08-23T19:20:35.941Z,4.60
2018-08-23T19:23:04.751Z,4.57
2018-08-23T19:25:33.881Z,3.80
2018-08-23T19:28:02.763Z,4.03
2018-08-23T19:30:31.702Z,4.17
2018-08-23T19:33:00.555Z,3.97
2018-08-23T19:35:29.430Z,4.70
2018-08-23T19:37:58.260Z,4.03
2018-08-23T19:40:30.596Z,4.00
2018-08-23T19:43:01.065Z,4.13
2018-08-23T19:45:34.125Z,4.13
2018-08-23T19:48:03.380Z,4.37
2018-08-23T19:50:32.329Z,4.27
2018-08-23T19:53:01.185Z,4.30
2018-08-23T19:55:30.032Z,4.37
2018-08-23T19:57:58.893Z,3.93
2018-08-23T20:00:27.906Z,4.53
2018-08-23T20:02:56.739Z,3.90
2018-08-23T20:05:25.720Z,4.43
2018-08-23T20:07:54.780Z,5.37
2018-08-23T20:10:23.674Z,4.43
2018-08-23T20:12:52.598Z,4.33
2018-08-23T20:15:24.599Z,4.60
2018-08-23T20:17:54.757Z,4.27
2018-08-23T20:20:23.655Z,5.80
2018-08-23T20:22:52.701Z,4.37
2018-08-23T20:25:21.564Z,5.10
2018-08-23T20:27:50.548Z,4.97
2018-08-23T20:30:19.459Z,4.80
2018-08-23T20:32:48.524Z,5.73
2018-08-23T20:35:17.471Z,4.33
2018-08-23T20:37:46.365Z,5.93
2018-08-23T20:40:15.329Z,5.40
2018-08-23T20:42:44.167Z,4.10
2018-08-23T20:45:13.166Z,3.93
2018-08-23T20:47:42.113Z,4.83
2018-08-23T20:50:11.113Z,4.13
2018-08-23T20:52:40.346Z,3.73
2018-08-23T20:55:09.196Z,4.60
2018-08-23T20:57:38.252Z,4.07
2018-08-23T21:00:07.620Z,5.33
2018-08-23T21:02:36.486Z,5.07
2018-08-23T21:05:05.356Z,4.50
2018-08-23T21:07:34.357Z,3.90
2018-08-23T21:10:03.440Z,4.43
2018-08-23T21:12:32.355Z,3.93
2018-08-23T21:15:01.216Z,4.10
2018-08-23T21:17:30.092Z,3.90
2018-08-23T21:19:59.002Z,4.23
2018-08-23T21:22:27.843Z,4.10
2018-08-23T21:24:56.651Z,3.73
2018-08-23T21:27:25.576Z,4.40
2018-08-23T21:29:54.428Z,4.37
2018-08-23T21:32:23.397Z,3.80
2018-08-23T21:34:52.248Z,4.13
2018-08-23T21:37:21.197Z,3.77
2018-08-23T21:39:49.996Z,4.30
2018-08-23T21:42:18.977Z,3.57
2018-08-23T21:44:48.009Z,3.87
2018-08-23T21:47:16.906Z,3.90
2018-08-23T21:49:46.076Z,3.80
2018-08-23T21:52:14.982Z,4.00
2018-08-23T21:54:44.138Z,3.60
2018-08-23T21:57:13.053Z,4.20
2018-08-23T21:59:41.863Z,3.93
2018-08-23T22:02:15.802Z,3.97
2018-08-23T22:04:49.850Z,3.93
2018-08-23T22:07:18.878Z,4.17
2018-08-23T22:09:52.792Z,3.73
2018-08-23T22:12:22.803Z,3.87
2018-08-23T22:14:52.835Z,3.67
2018-08-23T22:17:22.124Z,5.20
2018-08-23T22:19:51.847Z,3.63
2018-08-23T22:22:20.887Z,5.83
2018-08-23T22:24:49.795Z,4.27
2018-08-23T22:27:18.768Z,3.90
2018-08-23T22:29:47.608Z,4.33
2018-08-23T22:32:16.613Z,3.53
2018-08-23T22:34:45.518Z,3.60
2018-08-23T22:37:14.480Z,4.27
2018-08-23T22:39:43.357Z,4.30
2018-08-23T22:42:12.322Z,4.13
2018-08-23T22:44:41.560Z,4.03
2018-08-23T22:47:10.380Z,4.20
2018-08-23T22:49:39.271Z,4.00
2018-08-23T22:52:08.112Z,3.60
2018-08-23T22:54:37.075Z,4.20
2018-08-23T22:57:06.076Z,3.90
2018-08-23T22:59:35.106Z,4.70
2018-08-23T23:02:03.996Z,3.70
2018-08-23T23:04:32.985Z,3.77
2018-08-23T23:07:02.747Z,3.83
2018-08-23T23:09:31.978Z,3.60
2018-08-23T23:12:00.901Z,4.00
2018-08-23T23:14:29.902Z,4.27
2018-08-23T23:16:58.912Z,4.23
2018-08-23T23:19:27.735Z,3.43
2018-08-23T23:21:56.793Z,5.83
2018-08-23T23:24:30.889Z,4.17
2018-08-23T23:26:59.849Z,3.97
2018-08-23T23:29:28.706Z,3.70
2018-08-23T23:31:57.721Z,4.07
2018-08-23T23:34:26.712Z,4.20
2018-08-23T23:36:55.594Z,3.90
2018-08-23T23:39:24.680Z,3.70
2018-08-23T23:41:53.685Z,4.53
2018-08-23T23:44:22.659Z,4.60
2018-08-23T23:46:51.487Z,3.60
2018-08-23T23:49:20.417Z,4.20
2018-08-23T23:51:49.392Z,4.17
2018-08-23T23:54:18.279Z,4.63
2018-08-23T23:56:47.300Z,3.40
2018-08-23T23:59:16.317Z,3.77
